Time;durP1;ratioP1;P1;durP2;ratioP2;P2;SDS_P1;SDS_P2;PMS_P1;PMS_P2;Temp;Humidity;BMP_temperature;BMP_pressure;BME280_temperature;BME280_humidity;BME280_pressure;Samples;Min_cycle;Max_cycle;Signal;HPM_P1;HPM_P2
2021/10/01 08:20:04;;;;;;;5.45;1.83;;;;;;;13.36;100.00;101329.72;2615097;46;20046;-76
2021/10/01 08:22:37;;;;;;;5.82;1.35;;;;;;;13.38;100.00;101327.72;2633550;36;20065;-74
2021/10/01 08:28:38;;;;;;;5.85;2.00;;;;;;;13.69;100.00;101335.66;2661509;36;20035;-76
2021/10/01 08:33:54;;;;;;;3.60;1.38;;;;;;;13.93;100.00;101325.22;2612583;54;22100;-76
2021/10/01 08:36:42;;;;;;;10.32;1.77;;;;;;;13.90;100.00;101330.94;2614116;36;20030;-74
2021/10/01 08:39:39;;;;;;;4.15;1.77;;;;;;;14.01;100.00;101328.03;2615013;36;20436;-75
2021/10/01 08:42:26;;;;;;;5.90;1.50;;;;;;;13.97;100.00;101340.16;2632741;36;20030;-77
2021/10/01 08:45:02;;;;;;;5.28;1.50;;;;;;;13.92;100.00;101337.03;2613709;36;20022;-77
2021/10/01 08:47:37;;;;;;;5.70;1.30;;;;;;;13.91;100.00;101320.94;2613415;36;20030;-78
2021/10/01 08:50:41;;;;;;;5.70;1.58;;;;;;;13.80;100.00;101339.06;2624083;36;20030;-78
2021/10/01 08:53:14;;;;;;;5.18;1.50;;;;;;;13.83;100.00;101337.91;2615214;31;20031;-76
2021/10/01 08:55:47;;;;;;;5.82;1.63;;;;;;;13.80;100.00;101347.19;2616346;36;20443;-78
2021/10/01 08:58:21;;;;;;;8.75;1.70;;;;;;;13.60;100.00;101343.66;2615734;36;20038;-79
2021/10/01 09:00:54;;;;;;;5.10;1.40;;;;;;;13.66;100.00;101332.25;2631811;31;20065;-76
2021/10/01 09:03:22;;;;;;;8.55;1.85;;;;;;;13.79;100.00;101331.09;2613752;36;20058;-76
2021/10/01 09:06:39;;;;;;;6.67;1.40;;;;;;;13.61;100.00;101326.41;2614210;47;20145;-76
2021/10/01 09:09:10;;;;;;;5.43;1.50;;;;;;;13.51;100.00;101328.28;2615619;36;20135;-77
2021/10/01 09:11:45;;;;;;;5.18;1.92;;;;;;;13.55;100.00;101321.59;2615226;31;20471;-77
2021/10/01 09:14:15;;;;;;;3.55;1.50;;;;;;;13.65;100.00;101319.72;2614373;36;20065;-75
2021/10/01 09:16:44;;;;;;;4.60;1.80;;;;;;;13.60;100.00;101316.63;2614552;36;20035;-79
2021/10/01 09:19:13;;;;;;;3.67;1.60;;;;;;;13.59;100.00;101320.31;2614056;36;20065;-76
2021/10/01 09:21:56;;;;;;;4.13;1.52;;;;;;;13.63;100.00;101320.88;2613665;36;20038;-74
2021/10/01 09:24:29;;;;;;;5.97;1.55;;;;;;;13.84;100.00;101323.41;2614879;36;20455;-75
2021/10/01 09:27:00;;;;;;;5.38;1.75;;;;;;;13.75;100.00;101318.84;2615392;36;20038;-74
2021/10/01 09:29:31;;;;;;;6.43;1.50;;;;;;;13.81;100.00;101312.88;2614925;36;20065;-74
2021/10/01 09:32:01;;;;;;;4.43;1.33;;;;;;;13.86;100.00;101299.75;2614877;36;20037;-76
2021/10/01 09:34:36;;;;;;;4.80;1.73;;;;;;;13.97;100.00;101302.28;2614687;36;20026;-75
2021/10/01 09:37:09;;;;;;;4.80;1.60;;;;;;;14.09;100.00;101293.97;2615149;36;20459;-74
2021/10/01 09:39:53;;;;;;;5.82;1.75;;;;;;;14.23;100.00;101296.19;2613991;36;20655;-76
2021/10/01 09:45:01;;;;;;;4.57;1.73;;;;;;;14.13;100.00;101290.84;2614210;36;20053;-77
2021/10/01 09:47:35;;;;;;;5.55;1.77;;;;;;;14.12;100.00;101293.66;2613612;36;20034;-76
2021/10/01 09:50:10;;;;;;;7.50;1.45;;;;;;;14.35;100.00;101286.88;2613991;31;20513;-76
2021/10/01 09:55:42;;;;;;;4.75;1.58;;;;;;;14.35;100.00;101300.41;2614911;36;20034;-77
2021/10/01 09:58:12;;;;;;;4.57;1.65;;;;;;;14.35;100.00;101288.72;2614935;36;20126;-75
2021/10/01 10:03:56;;;;;;;7.80;1.70;;;;;;;14.43;100.00;101278.00;2613225;51;20030;-76
2021/10/01 10:13:03;;;;;;;;;;;;;;;;;;;;;
2021/10/01 10:15:33;;;;;;;6.25;1.60;;;;;;;14.10;100.00;101266.75;2613441;36;20059;-72
2021/10/01 10:18:02;;;;;;;5.50;2.03;;;;;;;14.06;100.00;101261.78;2631888;36;20034;-76
2021/10/01 10:20:30;;;;;;;4.93;1.52;;;;;;;13.93;100.00;101262.13;2614516;36;20030;-74
2021/10/01 10:22:59;;;;;;;6.45;1.77;;;;;;;14.04;100.00;101266.50;2614197;36;20038;-75
2021/10/01 10:25:27;;;;;;;4.90;1.83;;;;;;;14.07;100.00;101256.22;2615649;36;20034;-74
2021/10/01 10:27:58;;;;;;;7.95;1.88;;;;;;;13.99;100.00;101262.38;2615353;36;20689;-75
2021/10/01 10:30:26;;;;;;;7.68;1.60;;;;;;;14.12;100.00;101282.84;2615378;36;20086;-77
2021/10/01 10:38:33;;;;;;;5.85;1.60;;;;;;;14.27;100.00;101265.09;2614562;36;20030;-79
2021/10/01 10:41:22;;;;;;;5.65;1.83;;;;;;;14.29;100.00;101263.09;2615918;36;20057;-75
2021/10/01 10:43:53;;;;;;;;;;;;;;;14.12;100.00;101262.06;2615471;36;20030;-74
2021/10/01 10:46:46;;;;;;;3.63;1.70;;;;;;;14.10;100.00;101276.72;2615156;36;19974;-75
2021/10/01 10:49:22;;;;;;;4.68;2.08;;;;;;;13.75;100.00;101279.13;2615178;31;20035;-75
2021/10/01 10:52:07;;;;;;;3.60;1.52;;;;;;;13.51;100.00;101282.31;2615931;36;20031;-74
2021/10/01 11:30:47;;;;;;;10.40;3.30;;;;;;;13.61;100.00;101261.50;2614297;36;20755;-74
2021/10/01 11:34:23;;;;;;;7.43;3.97;;;;;;;13.65;100.00;101254.81;2633069;36;20031;-73
2021/10/01 11:40:21;;;;;;;9.23;3.88;;;;;;;13.62;100.00;101254.25;2614150;54;20037;-73
2021/10/01 11:46:06;;;;;;;8.63;3.28;;;;;;;13.91;100.00;101243.31;2633977;36;20042;-78
2021/10/01 12:03:12;;;;;;;3.13;2.20;;;;;;;14.31;100.00;101217.78;2650839;36;20066;-77
2021/10/01 12:06:35;;;;;;;4.30;2.15;;;;;;;14.40;100.00;101220.56;2615554;51;20058;-74
2021/10/01 12:09:14;;;;;;;8.20;2.53;;;;;;;14.60;100.00;101215.88;2652189;36;20617;-77
2021/10/01 12:12:25;;;;;;;;;;;;;;;;;;;;;
2021/10/01 12:15:02;;;;;;;10.10;3.13;;;;;;;14.82;100.00;101203.75;2651108;36;22098;-75
2021/10/01 12:17:48;;;;;;;11.40;4.00;;;;;;;14.71;100.00;101202.97;2633203;36;20030;-72
2021/10/01 12:20:24;;;;;;;9.50;3.00;;;;;;;14.74;100.00;101206.38;2632778;36;20038;-77
2021/10/01 12:23:18;;;;;;;11.27;3.35;;;;;;;14.78;100.00;101202.34;2616414;36;20034;-74
2021/10/01 12:29:14;;;;;;;6.43;2.05;;;;;;;14.91;100.00;101189.25;2651344;36;20053;-75
2021/10/01 12:31:54;;;;;;;8.23;1.90;;;;;;;15.02;100.00;101191.72;2616154;36;20034;-74
2021/10/01 12:34:28;;;;;;;6.28;1.85;;;;;;;15.10;100.00;101185.50;2615415;36;20139;-72
2021/10/01 12:37:04;;;;;;;8.23;2.03;;;;;;;15.05;100.00;101193.28;2634628;36;20447;-73
2021/10/01 12:39:40;;;;;;;6.68;1.98;;;;;;;15.02;100.00;101199.88;2615756;36;20034;-74
2021/10/01 12:42:11;;;;;;;7.25;1.85;;;;;;;15.04;100.00;101192.41;2615385;36;20074;-78
2021/10/01 12:44:41;;;;;;;5.10;1.95;;;;;;;15.13;100.00;101201.47;2615288;36;20099;-76
2021/10/01 12:47:15;;;;;;;7.95;1.60;;;;;;;15.05;100.00;101196.00;2615013;36;20764;-75
2021/10/01 12:49:44;;;;;;;3.60;1.60;;;;;;;15.02;100.00;101194.44;2614474;36;20030;-75
2021/10/01 12:52:17;;;;;;;;;;;;;;;14.91;100.00;101197.38;2633729;31;20030;-73
2021/10/01 12:54:55;;;;;;;4.05;1.50;;;;;;;14.87;100.00;101196.88;2614852;36;19946;-75
2021/10/01 12:57:38;;;;;;;5.88;1.80;;;;;;;14.82;100.00;101203.75;2633088;36;20037;-78
2021/10/01 13:00:25;;;;;;;5.85;1.80;;;;;;;14.79;100.00;101199.50;2614842;36;20038;-77
2021/10/01 13:08:27;;;;;;;7.03;1.95;;;;;;;14.86;100.00;101191.59;2615994;36;20447;-74
2021/10/01 13:14:31;;;;;;;4.47;1.60;;;;;;;14.98;100.00;101198.47;2615572;31;20226;-75
2021/10/01 13:17:20;;;;;;;4.50;1.52;;;;;;;15.04;100.00;101194.28;2616096;36;20034;-74
2021/10/01 13:20:00;;;;;;;7.88;1.58;;;;;;;15.00;100.00;101188.34;2615666;36;20443;-76
2021/10/01 13:23:03;;;;;;;6.07;1.95;;;;;;;15.15;100.00;101187.75;2616409;36;20037;-73
2021/10/01 13:25:37;;;;;;;5.38;1.65;;;;;;;15.31;100.00;101179.75;2615817;36;20038;-74
2021/10/01 13:28:18;;;;;;;4.60;1.83;;;;;;;15.27;100.00;101180.22;2615899;36;20031;-76
2021/10/01 13:30:48;;;;;;;5.03;1.60;;;;;;;15.18;100.00;101182.88;2632413;36;20457;-74
2021/10/01 13:33:22;;;;;;;5.95;1.83;;;;;;;15.22;100.00;101177.97;2616351;31;20034;-75
2021/10/01 13:35:51;;;;;;;5.68;1.85;;;;;;;15.21;100.00;101174.44;2615268;36;20037;-73
2021/10/01 13:38:28;;;;;;;4.90;1.75;;;;;;;15.28;100.00;101177.34;2641771;36;20041;-77
2021/10/01 13:43:41;;;;;;;5.78;1.80;;;;;;;15.29;100.00;101173.63;2614286;36;20034;-75
2021/10/01 13:46:10;;;;;;;6.97;1.83;;;;;;;15.39;100.00;101174.38;2613645;36;20034;-74
2021/10/01 13:48:39;;;;;;;3.97;1.60;;;;;;;15.47;100.00;101180.84;2632354;36;20058;-75
2021/10/01 13:51:08;;;;;;;4.78;1.65;;;;;;;15.53;100.00;101170.22;2613699;36;20101;-74
2021/10/01 13:53:37;;;;;;;4.43;1.30;;;;;;;15.50;100.00;101165.13;2614396;31;20038;-75
2021/10/01 13:56:11;;;;;;;7.03;1.73;;;;;;;15.38;100.00;101175.38;2614625;36;20038;-74
2021/10/01 13:58:44;;;;;;;5.07;1.70;;;;;;;15.35;100.00;101172.97;2613266;36;20062;-75
2021/10/01 14:01:17;;;;;;;10.63;1.92;;;;;;;15.20;100.00;101169.16;2614529;36;20081;-73
2021/10/01 14:03:47;;;;;;;4.95;1.73;;;;;;;15.15;100.00;101172.34;2614996;36;20034;-73
2021/10/01 14:06:15;;;;;;;9.48;2.10;;;;;;;15.28;100.00;101181.91;2615024;36;20042;-74
2021/10/01 14:08:44;;;;;;;5.27;1.60;;;;;;;15.25;100.00;101172.22;2615247;36;20037;-73
2021/10/01 14:30:20;;;;;;;3.42;2.03;;;;;;;15.16;100.00;101141.50;2614503;36;20178;-74
2021/10/01 14:39:58;;;;;;;6.00;1.92;;;;;;;15.22;100.00;101124.63;2612983;54;20058;-74
2021/10/01 14:46:10;;;;;;;5.90;2.13;;;;;;;15.32;100.00;101124.47;2631317;36;20405;-74
2021/10/01 14:51:44;;;;;;;5.47;1.75;;;;;;;15.22;100.00;101123.75;2614292;54;20039;-75
2021/10/01 15:02:03;;;;;;;5.32;1.92;;;;;;;15.22;100.00;101129.16;2613069;36;20049;-75
2021/10/01 15:07:40;;;;;;;5.32;1.63;;;;;;;15.05;100.00;101134.50;2615796;36;20038;-73
2021/10/01 15:10:12;;;;;;;2.85;1.55;;;;;;;14.91;100.00;101126.94;2631528;36;20042;-76
2021/10/01 15:12:47;;;;;;;4.90;1.63;;;;;;;14.92;100.00;101123.22;2616928;36;20026;-76
2021/10/01 15:56:24;;;;;;;8.43;3.58;;;;;;;13.55;100.00;101151.22;2615338;36;20034;-76
2021/10/01 16:02:01;;;;;;;7.72;3.10;;;;;;;13.45;100.00;101148.53;2631804;36;20059;-72
2021/10/01 16:09:53;;;;;;;;;;;;;;;13.30;100.00;101156.25;2613440;54;20034;-74
2021/10/01 16:12:51;;;;;;;5.90;2.70;;;;;;;13.28;100.00;101158.25;2632897;36;19943;-74
2021/10/01 16:15:23;;;;;;;7.53;3.97;;;;;;;13.26;100.00;101154.81;2615592;36;20038;-74
2021/10/01 16:21:14;;;;;;;5.95;3.22;;;;;;;13.18;100.00;101162.81;2649747;36;20424;-73
2021/10/01 16:26:53;;;;;;;11.35;3.90;;;;;;;13.14;100.00;101158.72;2650366;36;20037;-74
2021/10/01 16:35:31;;;;;;;8.20;3.10;;;;;;;13.06;100.00;101161.28;2614495;31;20031;-73
2021/10/01 16:38:13;;;;;;;7.57;3.05;;;;;;;13.09;100.00;101171.81;2633047;36;20108;-75
2021/10/01 16:46:53;;;;;;;8.93;3.65;;;;;;;12.94;100.00;101171.38;2613263;36;20456;-76
2021/10/01 16:52:48;;;;;;;6.32;4.25;;;;;;;12.90;100.00;101170.84;2631636;36;20041;-77
2021/10/01 16:55:43;;;;;;;7.90;4.57;;;;;;;12.87;100.00;101179.22;2615308;47;20551;-76
2021/10/01 16:58:21;;;;;;;9.02;3.58;;;;;;;12.90;100.00;101180.81;2650548;36;20559;-75
2021/10/01 17:00:55;;;;;;;7.88;4.80;;;;;;;12.87;100.00;101173.81;2632640;36;20045;-79
2021/10/01 17:04:08;;;;;;;9.65;4.35;;;;;;;12.82;100.00;101178.78;2616820;36;20037;-74
2021/10/01 17:06:36;;;;;;;8.95;3.78;;;;;;;12.78;100.00;101186.34;2614688;36;20035;-75
2021/10/01 17:09:24;;;;;;;6.13;3.70;;;;;;;12.79;100.00;101181.78;2615713;54;20068;-74
2021/10/01 17:14:35;;;;;;;8.73;3.85;;;;;;;12.75;100.00;101197.44;2613774;46;20607;-73
2021/10/01 17:20:41;;;;;;;14.75;6.35;;;;;;;12.64;100.00;101189.47;2631036;36;20149;-78
2021/10/01 17:23:13;;;;;;;11.63;5.50;;;;;;;12.61;100.00;101190.59;2614046;36;20445;-78
2021/10/01 17:26:01;;;;;;;15.15;6.10;;;;;;;12.60;100.00;101197.00;2615964;36;20089;-75
2021/10/01 17:28:30;;;;;;;9.75;4.63;;;;;;;12.54;100.00;101185.91;2613847;36;20031;-78
2021/10/01 17:30:58;;;;;;;9.57;5.05;;;;;;;12.51;100.00;101188.88;2615014;47;20061;-76
2021/10/01 19:05:57;;;;;;;11.82;8.38;;;;;;;12.00;100.00;101150.28;2633239;36;20634;-72
2021/10/01 22:14:59;;;;;;;30.80;21.48;;;;;;;12.65;100.00;101141.69;2632576;36;20554;-75
